Time;durP1;ratioP1;P1;durP2;ratioP2;P2;SDS_P1;SDS_P2;PMS_P1;PMS_P2;Temp;Humidity;BMP_temperature;BMP_pressure;BME280_temperature;BME280_humidity;BME280_pressure;Samples;Min_cycle;Max_cycle;Signal;HPM_P1;HPM_P2
2021/01/10 00:00:41;;;;;;;7.28;4.68;;;14.30;63.00;;;;;;5072592;28;20021;-37
2021/01/10 00:03:07;;;;;;;6.55;4.35;;;14.10;90.60;;;;;;5072738;28;20033;-37
2021/01/10 00:05:36;;;;;;;5.93;4.22;;;14.10;90.70;;;;;;5072637;28;20090;-38
2021/01/10 00:08:02;;;;;;;8.65;4.55;;;14.10;60.00;;;;;;5072459;28;20036;-37
2021/01/10 00:10:28;;;;;;;5.47;3.92;;;14.10;90.60;;;;;;5072739;28;20092;-37
2021/01/10 00:12:57;;;;;;;6.47;4.30;;;14.10;90.70;;;;;;5072632;28;20052;-37
2021/01/10 00:15:23;;;;;;;5.40;3.83;;;13.90;90.70;;;;;;5072526;28;20029;-37
2021/01/10 00:17:49;;;;;;;6.43;4.53;;;14.00;90.80;;;;;;5092589;28;20508;-38
2021/01/10 00:20:17;;;;;;;7.32;4.63;;;14.00;90.70;;;;;;5092505;28;20032;-37
2021/01/10 00:22:43;;;;;;;6.63;4.28;;;14.00;90.80;;;;;;5092713;28;20386;-38
2021/01/10 00:25:11;;;;;;;5.72;4.10;;;13.90;90.70;;;;;;5092353;28;20343;-37
2021/01/10 00:27:38;;;;;;;6.60;4.30;;;13.80;90.70;;;;;;5092396;28;20036;-38
2021/01/10 00:30:12;;;;;;;10.55;4.63;;;13.90;90.70;;;;;;5092385;28;20506;-38
2021/01/10 00:32:38;;;;;;;6.25;4.15;;;;;;;;;;5092427;28;20036;-37
2021/01/10 00:35:07;;;;;;;6.88;4.15;;;14.00;60.70;;;;;;5092171;28;20393;-42
2021/01/10 00:37:33;;;;;;;5.57;3.90;;;14.10;90.80;;;;;;5092246;28;20029;-37
2021/01/10 00:39:59;;;;;;;6.15;4.13;;;13.80;61.10;;;;;;5092468;28;20028;-38
2021/01/10 00:42:25;;;;;;;7.45;4.55;;;13.90;59.90;;;;;;5092110;28;20081;-38
2021/01/10 00:44:50;;;;;;;6.47;4.30;;;14.00;77.50;;;;;;5092274;28;20031;-38
2021/01/10 00:47:17;;;;;;;5.93;4.05;;;13.90;60.00;;;;;;5091882;28;20115;-37
2021/01/10 00:49:46;;;;;;;7.13;4.50;;;13.90;60.00;;;;;;5091973;28;20020;-37
2021/01/10 00:52:12;;;;;;;5.22;3.50;;;13.90;60.00;;;;;;5092006;28;20024;-38
2021/01/10 00:54:38;;;;;;;5.70;3.92;;;14.00;78.60;;;;;;5092059;28;20032;-38
2021/01/10 00:57:05;;;;;;;6.53;4.65;;;13.90;78.70;;;;;;5092003;28;20028;-38
2021/01/10 00:59:30;;;;;;;6.95;4.00;;;13.80;60.10;;;;;;5091933;28;20503;-38
2021/01/10 01:01:56;;;;;;;5.50;3.85;;;13.80;79.10;;;;;;5091935;28;20111;-38
2021/01/10 01:04:22;;;;;;;6.00;4.15;;;13.80;79.40;;;;;;5091927;28;20028;-37
2021/01/10 01:06:48;;;;;;;6.57;3.95;;;13.90;79.70;;;;;;5092210;28;20370;-37
2021/01/10 01:09:14;;;;;;;5.93;4.18;;;13.80;60.10;;;;;;5092119;28;20028;-38
2021/01/10 01:11:40;;;;;;;6.45;4.05;;;13.60;80.10;;;;;;5091811;28;20073;-37
2021/01/10 01:14:07;;;;;;;5.43;3.72;;;13.70;80.30;;;;;;5077715;28;20066;-37
2021/01/10 01:16:36;;;;;;;5.88;3.88;;;13.70;80.40;;;;;;5071500;28;20095;-38
2021/01/10 01:19:03;;;;;;;5.78;3.55;;;13.70;80.80;;;;;;5071841;28;20099;-38
2021/01/10 01:21:29;;;;;;;6.75;3.90;;;13.50;81.00;;;;;;5071533;28;20031;-38
2021/01/10 01:23:54;;;;;;;5.60;3.72;;;13.70;60.20;;;;;;5071678;28;20433;-38
2021/01/10 01:26:24;;;;;;;6.25;3.58;;;13.80;80.90;;;;;;5071750;28;20075;-38
2021/01/10 01:28:51;;;;;;;5.68;3.33;;;13.60;80.30;;;;;;5071469;28;20470;-38
2021/01/10 01:31:24;;;;;;;5.75;3.80;;;13.70;81.10;;;;;;5071417;28;20064;-38
2021/01/10 01:33:51;;;;;;;5.80;4.10;;;13.60;59.70;;;;;;5091541;28;20092;-37
2021/01/10 01:36:19;;;;;;;5.00;3.60;;;13.70;81.40;;;;;;5091659;28;20062;-37
2021/01/10 01:38:46;;;;;;;5.13;3.63;;;13.60;81.50;;;;;;5091783;28;20020;-37
2021/01/10 01:41:12;;;;;;;6.50;4.03;;;13.60;81.80;;;;;;5091620;28;20032;-38
2021/01/10 01:43:39;;;;;;;7.63;3.95;;;13.60;82.10;;;;;;5091751;28;20048;-38
2021/01/10 01:46:08;;;;;;;6.13;4.10;;;13.80;82.40;;;;;;5091488;28;20024;-38
2021/01/10 01:48:36;;;;;;;6.03;3.65;;;13.60;82.50;;;;;;5091415;28;20024;-38
2021/01/10 01:51:02;;;;;;;5.28;3.70;;;13.70;81.90;;;;;;5091507;28;20028;-38
2021/01/10 01:53:28;;;;;;;4.03;2.90;;;13.60;83.70;;;;;;5091239;28;20505;-38
2021/01/10 01:55:55;;;;;;;5.13;3.60;;;13.80;84.30;;;;;;5091323;28;20032;-38
2021/01/10 01:58:22;;;;;;;6.60;3.70;;;13.80;84.60;;;;;;5091677;28;20640;-38
2021/01/10 02:00:48;;;;;;;5.40;3.40;;;;;;;;;;5094409;28;20048;-37
2021/01/10 02:03:35;;;;;;;5.28;3.30;;;13.90;85.70;;;;;;5095158;28;20507;-38
2021/01/10 02:06:25;;;;;;;4.22;2.65;;;13.90;86.50;;;;;;5095470;28;20395;-38
2021/01/10 02:08:57;;;;;;;3.85;3.08;;;14.00;81.30;;;;;;5094584;28;20559;-39
2021/01/10 02:11:26;;;;;;;4.93;3.40;;;14.00;79.80;;;;;;5095010;28;20501;-38
2021/01/10 02:13:53;;;;;;;5.18;3.30;;;14.00;82.00;;;;;;5083669;28;20057;-37
2021/01/10 02:16:19;;;;;;;5.07;3.50;;;;;;;;;;5074573;28;20488;-37
2021/01/10 02:18:46;;;;;;;5.30;3.30;;;14.00;82.80;;;;;;5074578;28;20112;-38
2021/01/10 02:21:15;;;;;;;5.50;3.05;;;13.90;66.60;;;;;;5074450;28;20035;-38
2021/01/10 02:23:43;;;;;;;5.60;3.17;;;14.10;87.30;;;;;;5074662;28;20375;-38
2021/01/10 02:26:09;;;;;;;3.80;2.80;;;14.10;87.30;;;;;;5074669;28;20093;-38
2021/01/10 02:28:35;;;;;;;5.22;3.22;;;13.90;87.10;;;;;;5056408;28;20360;-37
2021/01/10 02:31:02;;;;;;;4.43;3.05;;;14.00;87.20;;;;;;5074403;28;20024;-38
2021/01/10 02:33:31;;;;;;;4.90;3.20;;;14.00;82.30;;;;;;5074276;28;20048;-38
2021/01/10 02:35:57;;;;;;;5.07;3.20;;;13.90;86.80;;;;;;5074226;28;20789;-38
2021/01/10 02:38:48;;;;;;;3.35;2.60;;;14.10;86.30;;;;;;5074215;28;20024;-38
2021/01/10 02:41:40;;;;;;;5.63;3.40;;;14.10;87.00;;;;;;5074480;28;20386;-38
2021/01/10 02:44:08;;;;;;;4.32;2.70;;;14.10;60.00;;;;;;5074405;28;20430;-37
2021/01/10 02:46:36;;;;;;;3.85;2.90;;;13.80;61.30;;;;;;5056184;28;20145;-38
2021/01/10 02:49:02;;;;;;;5.43;2.78;;;14.00;59.90;;;;;;5074053;28;20036;-38
2021/01/10 02:51:28;;;;;;;3.97;2.38;;;14.00;75.00;;;;;;5074185;28;20025;-38
2021/01/10 02:53:54;;;;;;;3.40;2.55;;;;;;;;;;5073946;28;20063;-38
2021/01/10 02:56:20;;;;;;;3.58;2.33;;;;;;;;;;5073949;28;20029;-38
2021/01/10 02:58:47;;;;;;;3.42;2.50;;;14.00;59.80;;;;;;5073883;28;20479;-38
2021/01/10 03:01:15;;;;;;;4.30;2.50;;;13.90;86.70;;;;;;5073814;28;20024;-38
2021/01/10 03:03:41;;;;;;;3.72;2.45;;;14.20;86.90;;;;;;5073820;28;20482;-37
2021/01/10 03:06:07;;;;;;;3.70;2.00;;;13.90;65.20;;;;;;5093969;28;20028;-37
2021/01/10 03:08:34;;;;;;;3.30;2.13;;;13.90;86.80;;;;;;5094311;28;20030;-38
2021/01/10 03:11:00;;;;;;;3.90;2.78;;;14.00;87.00;;;;;;5093833;28;20086;-38
2021/01/10 03:13:26;;;;;;;2.63;2.22;;;13.80;59.80;;;;;;5087215;28;20040;-38
2021/01/10 03:15:52;;;;;;;3.78;2.40;;;13.80;78.60;;;;;;5073609;28;20028;-38
2021/01/10 03:18:19;;;;;;;3.08;2.35;;;13.90;86.70;;;;;;5073517;28;20024;-38
2021/01/10 03:20:46;;;;;;;3.58;2.25;;;13.90;71.40;;;;;;5073403;28;20059;-37
2021/01/10 03:23:12;;;;;;;3.78;2.67;;;;;;;;;;5073434;28;20397;-37
2021/01/10 03:25:38;;;;;;;2.85;2.30;;;13.50;66.60;;;;;;5073244;28;20471;-37
2021/01/10 03:28:04;;;;;;;3.65;2.47;;;;;;;;;;5073349;28;20060;-37
2021/01/10 03:30:30;;;;;;;2.67;2.28;;;14.00;63.60;;;;;;5073305;28;20067;-37
2021/01/10 03:32:56;;;;;;;2.63;2.15;;;;;;;;;;5073225;28;20064;-37
2021/01/10 03:35:22;;;;;;;2.88;1.85;;;13.70;86.40;;;;;;5073141;28;20071;-37
2021/01/10 03:37:47;;;;;;;3.10;1.92;;;13.60;86.60;;;;;;5073313;28;20024;-37
2021/01/10 03:40:14;;;;;;;2.53;2.00;;;;;;;;;;5073112;28;20620;-37
2021/01/10 03:42:40;;;;;;;3.88;2.15;;;13.70;86.80;;;;;;5073060;28;20025;-37
2021/01/10 03:45:07;;;;;;;3.38;2.38;;;13.60;59.90;;;;;;5073062;28;20029;-37
2021/01/10 03:47:34;;;;;;;2.53;1.80;;;13.60;86.20;;;;;;5072943;28;20028;-37
2021/01/10 03:49:59;;;;;;;2.75;1.85;;;13.60;86.90;;;;;;5072890;28;20051;-38
2021/01/10 03:52:25;;;;;;;3.97;2.28;;;13.90;87.20;;;;;;5072803;28;20628;-38
2021/01/10 03:54:51;;;;;;;3.45;1.92;;;;;;;;;;5073026;28;20475;-38
2021/01/10 03:57:16;;;;;;;3.97;2.10;;;13.30;86.60;;;;;;5072633;28;20028;-37
2021/01/10 03:59:42;;;;;;;3.92;1.80;;;13.40;70.80;;;;;;5072899;28;20033;-37
2021/01/10 04:02:08;;;;;;;1.95;1.75;;;;;;;;;;5072515;28;20020;-37
2021/01/10 04:04:34;;;;;;;2.30;1.75;;;;;;;;;;5072552;28;20478;-38
2021/01/10 04:07:00;;;;;;;3.17;1.80;;;;;;;;;;5072433;28;20031;-37
2021/01/10 04:09:26;;;;;;;2.08;1.80;;;;;;;;;;5072705;28;20561;-37
2021/01/10 04:11:52;;;;;;;2.88;1.63;;;;;;;;;;5072434;28;20025;-37
2021/01/10 04:14:18;;;;;;;1.75;1.50;;;;;;;;;;5072665;28;20103;-38
2021/01/10 04:16:44;;;;;;;3.28;1.92;;;;;;;;;;5072377;28;20399;-39
2021/01/10 04:19:10;;;;;;;2.92;1.88;;;;;;;;;;5072264;28;20033;-38
2021/01/10 04:21:36;;;;;;;2.13;1.77;;;13.40;59.90;;;;;;5071980;28;20060;-38
2021/01/10 04:24:03;;;;;;;2.42;1.80;;;13.80;60.20;;;;;;5072166;28;20016;-38
2021/01/10 04:26:32;;;;;;;3.80;1.67;;;13.40;87.30;;;;;;5072096;28;20036;-42
2021/01/10 04:28:58;;;;;;;2.50;1.77;;;;;;;;;;5072126;28;20094;-38
2021/01/10 04:31:24;;;;;;;2.33;1.77;;;;;;;;;;5072055;28;20473;-38
2021/01/10 04:33:50;;;;;;;2.50;1.92;;;13.40;61.30;;;;;;5072002;28;20390;-38
2021/01/10 04:36:16;;;;;;;2.60;1.90;;;;;;;;;;5072082;28;20017;-37
2021/01/10 04:38:41;;;;;;;2.80;1.90;;;13.50;87.80;;;;;;5072043;28;20098;-38
2021/01/10 04:41:07;;;;;;;1.95;1.65;;;;;;;;;;5072015;28;20028;-37
2021/01/10 04:43:33;;;;;;;2.08;1.65;;;13.70;87.70;;;;;;5071952;28;20033;-38
2021/01/10 04:46:00;;;;;;;1.80;1.50;;;13.60;87.60;;;;;;5071843;28;20055;-38
2021/01/10 04:48:25;;;;;;;2.00;1.70;;;13.40;87.60;;;;;;5072153;28;20028;-37
2021/01/10 04:50:51;;;;;;;2.63;1.92;;;13.70;88.00;;;;;;5072052;28;20458;-37
2021/01/10 04:53:20;;;;;;;2.08;1.55;;;13.70;60.20;;;;;;5071636;28;20059;-38
2021/01/10 04:55:47;;;;;;;1.83;1.50;;;13.80;60.20;;;;;;5071960;28;20028;-38
2021/01/10 04:58:13;;;;;;;2.10;1.40;;;14.00;79.40;;;;;;5071997;28;20024;-38
2021/01/10 05:00:40;;;;;;;1.40;1.30;;;13.90;87.60;;;;;;5071763;28;20028;-38
2021/01/10 05:03:10;;;;;;;1.60;1.42;;;14.30;74.70;;;;;;5071744;28;20031;-38
2021/01/10 05:05:37;;;;;;;2.10;1.27;;;14.00;74.50;;;;;;5071994;28;20043;-38
2021/01/10 05:08:08;;;;;;;1.38;1.17;;;14.20;86.90;;;;;;5071926;28;20374;-38
2021/01/10 05:10:34;;;;;;;2.17;1.42;;;14.10;69.60;;;;;;5071829;28;20029;-37
2021/01/10 05:13:00;;;;;;;2.67;1.60;;;;;;;;;;5072695;28;20379;-38
2021/01/10 05:15:26;;;;;;;1.90;1.38;;;;;;;;;;5071590;28;20387;-38
2021/01/10 05:17:54;;;;;;;1.48;1.30;;;14.00;64.00;;;;;;5071775;28;20024;-38
2021/01/10 05:20:19;;;;;;;1.90;1.38;;;14.00;87.00;;;;;;5071855;28;20051;-38
2021/01/10 05:22:48;;;;;;;1.88;1.13;;;14.20;75.20;;;;;;5071632;28;20158;-38
2021/01/10 05:25:14;;;;;;;2.33;1.35;;;14.10;85.40;;;;;;5071753;28;20040;-38
2021/01/10 05:27:40;;;;;;;1.23;1.13;;;14.10;86.50;;;;;;5071380;28;20021;-38
2021/01/10 05:30:06;;;;;;;1.55;1.15;;;;;;;;;;5071512;28;20028;-38
2021/01/10 05:32:32;;;;;;;1.80;1.20;;;;;;;;;;5071321;28;20036;-38
2021/01/10 05:34:59;;;;;;;0.80;0.80;;;14.20;67.60;;;;;;5073296;28;20397;-38
2021/01/10 05:37:25;;;;;;;2.05;1.27;;;14.20;86.90;;;;;;5075407;28;20099;-38
2021/01/10 05:39:51;;;;;;;1.48;1.20;;;14.10;87.10;;;;;;5075535;28;20060;-39
2021/01/10 05:42:17;;;;;;;1.90;1.25;;;14.10;87.10;;;;;;5075357;28;20505;-39
2021/01/10 05:44:43;;;;;;;2.17;1.20;;;14.10;87.10;;;;;;5075322;28;20566;-38
2021/01/10 05:47:13;;;;;;;1.30;0.95;;;14.10;59.40;;;;;;5075322;28;20099;-38
2021/01/10 05:49:46;;;;;;;;;;;14.10;59.90;;;;;;5075657;28;20529;-38
2021/01/10 05:52:12;;;;;;;1.15;1.05;;;14.10;59.30;;;;;;5075009;28;19920;-38
2021/01/10 05:54:42;;;;;;;1.40;1.23;;;14.00;68.70;;;;;;5075376;28;20033;-37
2021/01/10 05:57:11;;;;;;;1.33;0.88;;;14.20;68.80;;;;;;5075341;28;20385;-38
2021/01/10 05:59:53;;;;;;;1.90;1.10;;;14.10;87.10;;;;;;5074851;28;20470;-38
2021/01/10 06:02:29;;;;;;;0.95;0.77;;;14.00;86.90;;;;;;5074920;28;20111;-37
2021/01/10 06:05:12;;;;;;;1.17;0.90;;;14.00;59.10;;;;;;5074872;28;20033;-38
2021/01/10 06:07:38;;;;;;;1.08;0.73;;;;;;;;;;5075070;28;20028;-38
2021/01/10 06:10:06;;;;;;;1.27;0.80;;;14.00;86.80;;;;;;5074758;28;20115;-38
2021/01/10 06:12:32;;;;;;;1.63;0.88;;;14.10;72.20;;;;;;5074661;28;20086;-38
2021/01/10 06:15:18;;;;;;;0.90;0.80;;;14.20;59.10;;;;;;5075708;27;20052;-38
2021/01/10 06:17:45;;;;;;;0.90;0.80;;;14.40;87.10;;;;;;5074894;28;20013;-38
2021/01/10 06:20:28;;;;;;;1.40;1.05;;;14.20;86.60;;;;;;5074554;28;20043;-38
2021/01/10 06:22:56;;;;;;;0.93;0.82;;;14.40;86.80;;;;;;5074905;28;20024;-38
2021/01/10 06:25:26;;;;;;;1.63;1.25;;;14.30;87.00;;;;;;5074790;28;20047;-38
2021/01/10 06:28:12;;;;;;;1.35;0.98;;;14.20;77.20;;;;;;5074477;28;20029;-39
2021/01/10 06:30:41;;;;;;;1.67;0.93;;;14.70;86.90;;;;;;5056522;28;20052;-39
2021/01/10 06:33:12;;;;;;;1.08;0.80;;;14.50;86.70;;;;;;5074411;28;20033;-38
2021/01/10 06:35:38;;;;;;;;;;;14.30;59.70;;;;;;5074830;28;20028;-39
2021/01/10 06:38:06;;;;;;;0.88;0.80;;;14.60;86.90;;;;;;5074466;28;19909;-39
2021/01/10 06:40:36;;;;;;;0.80;0.75;;;14.60;59.30;;;;;;5074310;28;20107;-38
2021/01/10 06:43:04;;;;;;;1.23;0.57;;;14.70;85.90;;;;;;5074214;28;20032;-38
2021/01/10 06:45:38;;;;;;;1.00;0.70;;;15.20;59.60;;;;;;5073913;28;20040;-41
2021/01/10 06:48:05;;;;;;;1.00;0.70;;;14.80;86.70;;;;;;5074410;28;20020;-38
2021/01/10 06:50:32;;;;;;;1.08;0.50;;;14.80;81.80;;;;;;5074267;28;20020;-38
2021/01/10 06:53:13;;;;;;;0.75;0.63;;;14.80;84.60;;;;;;5074191;28;20158;-38
2021/01/10 06:55:40;;;;;;;0.82;0.70;;;14.80;86.50;;;;;;5074077;28;20020;-38
2021/01/10 06:58:09;;;;;;;0.82;0.60;;;14.90;86.50;;;;;;5073926;28;20060;-38
2021/01/10 07:00:53;;;;;;;1.40;0.73;;;14.80;58.70;;;;;;5074021;28;20103;-38
2021/01/10 07:03:19;;;;;;;2.45;0.90;;;;;;;;;;5074080;28;20028;-38
2021/01/10 07:06:12;;;;;;;1.00;0.82;;;14.80;58.50;;;;;;5073828;28;20034;-38
2021/01/10 07:08:54;;;;;;;0.68;0.63;;;14.90;86.30;;;;;;5072576;28;20372;-38
2021/01/10 07:11:23;;;;;;;2.22;0.80;;;;;;;;;;5072628;28;20048;-39
2021/01/10 07:14:12;;;;;;;0.93;0.80;;;14.80;82.60;;;;;;5073591;27;20064;-39
2021/01/10 07:16:45;;;;;;;1.20;0.77;;;14.90;58.50;;;;;;5073416;28;20661;-38
2021/01/10 07:19:11;;;;;;;1.25;0.80;;;14.90;81.40;;;;;;5073992;28;20264;-39
2021/01/10 07:21:39;;;;;;;1.17;1.02;;;14.90;86.30;;;;;;5073800;28;20079;-38
2021/01/10 07:24:13;;;;;;;0.77;0.70;;;14.90;58.20;;;;;;5073745;28;20025;-38
2021/01/10 07:26:46;;;;;;;1.02;0.70;;;15.00;86.30;;;;;;5073677;28;20029;-38
2021/01/10 07:29:53;;;;;;;1.73;0.85;;;15.00;86.10;;;;;;5073666;28;20028;-39
2021/01/10 07:32:34;;;;;;;2.28;0.82;;;15.20;62.10;;;;;;4972170;28;20031;-38
2021/01/10 07:35:01;;;;;;;0.70;0.70;;;14.90;58.00;;;;;;4972241;28;20081;-38
2021/01/10 07:37:29;;;;;;;1.08;0.73;;;14.90;86.00;;;;;;5023189;28;20071;-38
2021/01/10 07:39:57;;;;;;;0.93;0.77;;;14.90;58.10;;;;;;5073449;28;20037;-38
2021/01/10 07:42:31;;;;;;;3.47;0.93;;;15.00;58.00;;;;;;5073154;28;20025;-38
2021/01/10 07:45:17;;;;;;;2.20;0.77;;;14.90;58.00;;;;;;5073387;28;20021;-38
2021/01/10 07:47:47;;;;;;;3.17;1.00;;;14.90;86.00;;;;;;5073342;28;20103;-38
2021/01/10 07:50:15;;;;;;;;;;;14.80;58.50;;;;;;5073510;28;20032;-38
2021/01/10 07:52:42;;;;;;;1.67;0.88;;;;;;;;;;5072853;28;19919;-38
2021/01/10 07:55:19;;;;;;;0.70;0.70;;;15.00;86.00;;;;;;5073222;28;20532;-39
2021/01/10 07:58:00;;;;;;;1.55;0.77;;;14.90;85.60;;;;;;5072150;28;20134;-38
2021/01/10 08:00:49;;;;;;;1.95;0.55;;;14.90;62.50;;;;;;5072816;28;20103;-38
2021/01/10 08:03:25;;;;;;;0.82;0.70;;;14.90;85.90;;;;;;5072840;28;20052;-39
2021/01/10 08:06:04;;;;;;;1.60;0.60;;;14.90;60.80;;;;;;5072697;28;20024;-38
2021/01/10 08:08:45;;;;;;;2.00;0.82;;;15.00;85.80;;;;;;5072922;28;20108;-39
2021/01/10 08:11:11;;;;;;;1.27;0.80;;;15.00;85.90;;;;;;5072863;28;20360;-39
2021/01/10 08:13:42;;;;;;;1.65;0.80;;;15.00;85.90;;;;;;5073219;28;20048;-38
2021/01/10 08:16:28;;;;;;;1.10;0.75;;;14.90;85.70;;;;;;5072715;28;20021;-38
2021/01/10 08:18:54;;;;;;;1.08;0.73;;;;;;;;;;5072372;28;20032;-38
2021/01/10 08:21:20;;;;;;;1.35;0.70;;;14.70;64.50;;;;;;5072352;28;20077;-38
2021/01/10 08:23:53;;;;;;;1.10;0.90;;;15.20;85.80;;;;;;5072268;28;20032;-38
2021/01/10 08:26:19;;;;;;;3.22;0.93;;;14.90;73.00;;;;;;5072224;28;20028;-38
2021/01/10 08:28:57;;;;;;;1.42;0.82;;;14.90;85.30;;;;;;5072077;28;20033;-38
2021/01/10 08:31:25;;;;;;;1.80;0.80;;;14.80;56.90;;;;;;5072209;28;20033;-39
2021/01/10 08:34:06;;;;;;;0.77;0.63;;;15.30;85.60;;;;;;5072182;28;20024;-38
2021/01/10 08:36:36;;;;;;;1.23;0.70;;;15.00;76.30;;;;;;5072094;28;20064;-38
2021/01/10 08:39:09;;;;;;;1.30;0.55;;;15.00;61.90;;;;;;5072092;28;20028;-38
2021/01/10 08:41:42;;;;;;;2.05;0.75;;;15.10;85.40;;;;;;5072129;28;20493;-38
2021/01/10 08:44:12;;;;;;;0.75;0.60;;;15.10;56.60;;;;;;5072245;28;20108;-38
2021/01/10 08:46:39;;;;;;;2.07;0.60;;;15.10;85.30;;;;;;5072016;28;20055;-39
2021/01/10 08:49:05;;;;;;;1.17;0.50;;;15.20;73.50;;;;;;5071885;28;20024;-38
2021/01/10 08:51:39;;;;;;;1.95;0.70;;;15.50;57.10;;;;;;5071884;28;20055;-38
2021/01/10 08:54:15;;;;;;;1.98;1.10;;;15.20;85.40;;;;;;5072019;28;20036;-38
2021/01/10 08:56:43;;;;;;;1.33;0.75;;;14.90;85.10;;;;;;5071875;28;20104;-38
2021/01/10 08:59:09;;;;;;;2.25;0.80;;;15.40;85.00;;;;;;5071901;28;20389;-38
2021/01/10 09:01:36;;;;;;;3.03;0.93;;;15.00;84.80;;;;;;5072061;28;20021;-38
2021/01/10 09:04:03;;;;;;;2.97;1.08;;;15.20;55.80;;;;;;5071742;28;20024;-38
2021/01/10 09:06:57;;;;;;;1.77;0.95;;;15.30;84.10;;;;;;5071755;28;20111;-39
2021/01/10 09:09:47;;;;;;;1.67;0.93;;;15.30;55.40;;;;;;5071888;28;20021;-39
2021/01/10 09:12:25;;;;;;;1.48;0.80;;;15.30;55.20;;;;;;5071749;28;20123;-38
2021/01/10 09:14:58;;;;;;;4.03;1.10;;;15.40;83.90;;;;;;5072674;28;20091;-38
2021/01/10 09:17:36;;;;;;;2.17;0.90;;;15.40;55.10;;;;;;5071644;28;20509;-39
2021/01/10 09:20:11;;;;;;;1.35;0.90;;;15.40;70.20;;;;;;5071842;28;20386;-38
2021/01/10 09:22:37;;;;;;;1.25;0.93;;;;;;;;;;5071594;28;20020;-39
2021/01/10 09:25:17;;;;;;;3.00;0.82;;;15.60;83.40;;;;;;5071772;28;20032;-39
2021/01/10 09:28:09;;;;;;;5.07;1.20;;;15.70;83.40;;;;;;5071840;28;20029;-38
2021/01/10 09:30:40;;;;;;;2.20;1.27;;;15.60;54.80;;;;;;5071824;28;20048;-39
2021/01/10 09:33:07;;;;;;;2.92;0.98;;;15.70;54.70;;;;;;5071412;28;20037;-38
2021/01/10 09:35:43;;;;;;;4.80;1.55;;;15.70;54.60;;;;;;5071408;28;20563;-39
2021/01/10 09:38:16;;;;;;;4.22;1.58;;;15.70;54.40;;;;;;5071420;28;20037;-38
2021/01/10 09:41:08;;;;;;;3.55;1.23;;;15.70;54.20;;;;;;5053386;28;20558;-38
2021/01/10 09:43:48;;;;;;;4.00;1.30;;;15.70;54.10;;;;;;5071358;28;20024;-38
2021/01/10 09:46:36;;;;;;;1.88;1.17;;;15.70;53.90;;;;;;5071558;28;20526;-38
2021/01/10 09:49:05;;;;;;;3.35;1.15;;;15.80;53.80;;;;;;5071536;28;20040;-38
2021/01/10 09:52:06;;;;;;;4.47;1.50;;;15.90;53.70;;;;;;5070960;28;20040;-38
2021/01/10 09:54:32;;;;;;;;;;;15.80;53.50;;;;;;5066323;28;20053;-38
2021/01/10 09:57:10;;;;;;;1.70;0.90;;;15.80;53.40;;;;;;5071126;28;20249;-39
2021/01/10 09:59:55;;;;;;;1.80;1.40;;;15.80;53.30;;;;;;5070540;28;20114;-38
2021/01/10 10:02:21;;;;;;;2.28;1.13;;;15.80;53.10;;;;;;5071090;28;20115;-40
2021/01/10 10:05:06;;;;;;;4.45;1.38;;;15.90;53.10;;;;;;5070543;28;20056;-38
2021/01/10 10:07:46;;;;;;;3.78;1.67;;;15.90;53.10;;;;;;5069520;28;20021;-38
2021/01/10 10:10:17;;;;;;;2.47;1.40;;;15.90;52.90;;;;;;5070745;28;20055;-38
2021/01/10 10:13:09;;;;;;;3.58;1.50;;;16.00;52.90;;;;;;5070922;28;20036;-38
2021/01/10 10:15:36;;;;;;;3.65;1.52;;;16.00;52.80;;;;;;5071746;28;20147;-38
2021/01/10 10:18:03;;;;;;;2.97;1.55;;;16.00;52.70;;;;;;5070895;28;20059;-37
2021/01/10 10:20:29;;;;;;;2.78;1.48;;;;;;;;;;5072144;28;20066;-38
2021/01/10 10:22:55;;;;;;;3.80;1.38;;;16.30;52.00;;;;;;5074552;28;20028;-37
2021/01/10 10:25:20;;;;;;;3.90;1.63;;;16.40;52.00;;;;;;5074463;28;20024;-37
2021/01/10 10:27:55;;;;;;;4.55;1.48;;;16.60;51.80;;;;;;5074523;28;20039;-38
2021/01/10 10:30:21;;;;;;;2.80;1.38;;;16.70;51.80;;;;;;5074379;28;20162;-38
2021/01/10 10:32:47;;;;;;;6.43;1.90;;;;;;;;;;5073167;28;20039;-38
2021/01/10 10:35:19;;;;;;;6.25;1.58;;;16.90;51.20;;;;;;5072449;28;20390;-38
2021/01/10 10:37:45;;;;;;;3.30;1.10;;;17.50;51.80;;;;;;5072916;28;20042;-38
2021/01/10 10:40:11;;;;;;;5.35;1.92;;;16.90;62.10;;;;;;5073524;28;20024;-39
2021/01/10 10:42:37;;;;;;;3.50;1.88;;;16.90;51.20;;;;;;5073453;28;20020;-39
2021/01/10 10:45:03;;;;;;;3.60;1.80;;;17.00;50.90;;;;;;5073371;28;20043;-39
2021/01/10 10:47:29;;;;;;;2.30;1.48;;;17.00;50.80;;;;;;5073975;28;20110;-39
2021/01/10 10:49:54;;;;;;;2.35;1.70;;;17.10;50.70;;;;;;5074220;28;20063;-36
2021/01/10 10:52:20;;;;;;;4.05;1.65;;;17.10;50.70;;;;;;5073977;28;20542;-38
2021/01/10 10:54:45;;;;;;;3.10;1.30;;;17.00;50.50;;;;;;5074043;28;20039;-36
2021/01/10 10:57:11;;;;;;;3.42;1.80;;;17.10;50.60;;;;;;5073985;28;20025;-36
2021/01/10 10:59:38;;;;;;;3.67;1.58;;;17.10;50.50;;;;;;5073972;28;20036;-36
2021/01/10 11:02:05;;;;;;;5.15;2.20;;;17.10;50.40;;;;;;5073835;28;20561;-38
2021/01/10 11:04:31;;;;;;;2.85;1.80;;;17.10;50.30;;;;;;5073095;28;20020;-37
2021/01/10 11:06:56;;;;;;;3.00;1.80;;;17.20;50.10;;;;;;5072350;28;20467;-37
2021/01/10 11:09:22;;;;;;;2.28;1.48;;;17.20;50.00;;;;;;5072411;28;20029;-37
2021/01/10 11:11:48;;;;;;;2.58;1.23;;;17.30;50.00;;;;;;5073372;28;20501;-37
2021/01/10 11:14:17;;;;;;;1.55;1.33;;;17.30;49.80;;;;;;5073921;28;20052;-37
2021/01/10 11:16:43;;;;;;;1.83;1.60;;;17.40;49.70;;;;;;5073467;28;20035;-37
2021/01/10 11:19:10;;;;;;;2.97;1.50;;;17.40;49.50;;;;;;5073956;28;20421;-37
2021/01/10 11:21:41;;;;;;;3.58;1.92;;;17.50;49.60;;;;;;5073536;28;20028;-37
2021/01/10 11:24:08;;;;;;;2.78;1.65;;;17.60;49.60;;;;;;5073454;28;20454;-37
2021/01/10 11:26:35;;;;;;;2.47;1.70;;;17.50;49.40;;;;;;5073181;28;20024;-37
2021/01/10 11:29:01;;;;;;;2.35;1.33;;;17.60;49.30;;;;;;5073332;28;20028;-37
2021/01/10 11:31:27;;;;;;;2.00;1.23;;;17.60;49.30;;;;;;5073548;28;20025;-37
2021/01/10 11:33:53;;;;;;;3.08;1.83;;;17.60;49.30;;;;;;5073213;28;20387;-37
2021/01/10 11:36:19;;;;;;;2.15;1.40;;;17.70;49.10;;;;;;5073223;28;20028;-37
2021/01/10 11:38:50;;;;;;;3.53;1.50;;;17.70;49.00;;;;;;5073469;28;20032;-37
2021/01/10 11:41:17;;;;;;;2.60;1.77;;;17.70;48.90;;;;;;5073423;28;20043;-37
2021/01/10 11:43:43;;;;;;;2.40;1.73;;;17.70;49.00;;;;;;5072950;28;20111;-37
2021/01/10 11:46:09;;;;;;;3.83;1.75;;;17.80;48.80;;;;;;5072945;28;20740;-37
2021/01/10 11:48:42;;;;;;;3.65;1.58;;;17.80;49.20;;;;;;5071743;28;20040;-37
2021/01/10 11:51:09;;;;;;;3.53;1.80;;;17.80;49.40;;;;;;5072842;28;20544;-38
2021/01/10 11:53:35;;;;;;;2.53;1.75;;;17.70;49.60;;;;;;5072968;28;20032;-38
2021/01/10 11:56:01;;;;;;;1.67;1.40;;;17.70;49.50;;;;;;5072832;28;20490;-38
2021/01/10 11:58:27;;;;;;;5.43;1.73;;;17.60;49.30;;;;;;5072860;28;20116;-38
2021/01/10 12:00:54;;;;;;;3.20;1.50;;;17.60;48.90;;;;;;5072716;28;20075;-38
2021/01/10 12:03:21;;;;;;;4.22;1.77;;;17.50;48.90;;;;;;5072645;28;20036;-38
2021/01/10 12:05:46;;;;;;;4.20;1.52;;;17.50;49.00;;;;;;5072451;28;20024;-38
2021/01/10 12:08:12;;;;;;;4.20;1.67;;;17.50;49.10;;;;;;5072618;28;20490;-37
2021/01/10 12:10:39;;;;;;;4.13;1.80;;;17.40;49.00;;;;;;5072735;28;20494;-38
2021/01/10 12:13:05;;;;;;;2.28;1.52;;;17.40;48.80;;;;;;5072537;28;20037;-38
2021/01/10 12:15:33;;;;;;;2.28;1.52;;;17.50;48.70;;;;;;5073735;27;20051;-37
2021/01/10 12:17:59;;;;;;;3.50;1.65;;;17.40;48.60;;;;;;5072331;28;20024;-38
2021/01/10 12:20:24;;;;;;;3.15;1.70;;;17.50;48.50;;;;;;5072356;28;20032;-38
2021/01/10 12:22:50;;;;;;;2.08;1.65;;;17.40;48.30;;;;;;5072331;28;20047;-39
2021/01/10 12:25:15;;;;;;;5.53;1.70;;;17.50;48.40;;;;;;5072221;28;20028;-37
2021/01/10 12:27:41;;;;;;;4.75;1.67;;;17.50;48.90;;;;;;5072220;28;20025;-37
2021/01/10 12:30:07;;;;;;;5.93;1.70;;;17.50;48.60;;;;;;5072199;28;20242;-38
2021/01/10 12:32:36;;;;;;;3.63;1.95;;;17.50;48.80;;;;;;5072046;28;20095;-37
2021/01/10 12:35:04;;;;;;;2.85;1.50;;;17.50;48.80;;;;;;5071996;28;20028;-38
2021/01/10 12:37:30;;;;;;;4.53;1.60;;;17.50;48.90;;;;;;5071962;28;20111;-37
2021/01/10 12:39:56;;;;;;;3.83;1.80;;;17.60;48.70;;;;;;5071961;28;20103;-37
2021/01/10 12:42:22;;;;;;;6.80;1.88;;;17.50;48.50;;;;;;5071552;28;20109;-38
2021/01/10 12:44:48;;;;;;;3.72;1.30;;;17.50;48.60;;;;;;5071768;28;20044;-37
2021/01/10 12:47:14;;;;;;;4.93;1.30;;;17.50;48.60;;;;;;5071909;28;20052;-38
2021/01/10 12:49:39;;;;;;;7.43;1.60;;;17.50;48.80;;;;;;5071866;28;20067;-38
2021/01/10 12:52:05;;;;;;;2.95;1.90;;;17.50;48.70;;;;;;5071926;28;20026;-38
2021/01/10 12:54:32;;;;;;;2.65;1.58;;;17.50;48.70;;;;;;5071103;28;20048;-38
2021/01/10 12:56:57;;;;;;;2.20;1.48;;;17.40;48.50;;;;;;5070368;28;20025;-37
2021/01/10 12:59:23;;;;;;;2.58;1.40;;;17.40;48.40;;;;;;5071101;28;20123;-38
2021/01/10 13:01:48;;;;;;;4.15;1.60;;;17.40;48.40;;;;;;5071152;28;20032;-38
2021/01/10 13:04:14;;;;;;;2.72;1.40;;;17.40;48.60;;;;;;5069966;28;20047;-38
2021/01/10 13:06:40;;;;;;;3.33;1.50;;;17.30;48.60;;;;;;5069072;28;20025;-37
2021/01/10 13:09:06;;;;;;;1.77;1.60;;;17.40;48.60;;;;;;5069390;28;20090;-37